createdAt,value
2023-01-03T00:01:26.631Z,13.43
2023-01-03T00:03:56.237Z,13.36
2023-01-03T00:06:28.421Z,13.38
2023-01-03T00:09:00.427Z,13.30
2023-01-03T00:11:50.514Z,13.24
2023-01-03T00:14:23.160Z,13.18
2023-01-03T00:16:53.584Z,13.20
2023-01-03T00:19:23.324Z,13.23
2023-01-03T00:21:51.571Z,13.16
2023-01-03T00:24:21.632Z,13.08
2023-01-03T00:26:49.916Z,13.03
2023-01-03T00:29:18.173Z,13.02
2023-01-03T00:31:46.473Z,12.99
2023-01-03T00:34:14.732Z,13.03
2023-01-03T00:36:42.815Z,12.96
2023-01-03T00:39:12.017Z,12.90
2023-01-03T00:41:41.936Z,12.90
2023-01-03T00:44:10.420Z,12.88
2023-01-03T00:46:39.207Z,12.87
2023-01-03T00:49:08.881Z,12.84
2023-01-03T00:51:40.532Z,12.86
2023-01-03T00:54:10.965Z,12.73
2023-01-03T00:56:43.120Z,12.83
2023-01-03T00:59:12.484Z,12.80
2023-01-03T01:01:47.142Z,12.72
2023-01-03T01:04:22.881Z,12.78
2023-01-03T01:06:54.354Z,12.67
2023-01-03T01:09:25.027Z,12.69
2023-01-03T01:11:54.826Z,12.67
2023-01-03T01:14:27.181Z,12.62
2023-01-03T01:16:57.622Z,12.56
2023-01-03T01:19:29.310Z,12.59
2023-01-03T01:21:58.138Z,12.54
2023-01-03T01:24:28.137Z,12.52
2023-01-03T01:26:57.705Z,12.52
2023-01-03T01:29:26.010Z,12.54
2023-01-03T01:31:54.459Z,12.48
2023-01-03T01:34:22.833Z,12.57
2023-01-03T01:36:50.928Z,12.48
2023-01-03T01:39:21.709Z,12.47
2023-01-03T01:42:30.245Z,12.39
2023-01-03T01:45:01.415Z,12.32
2023-01-03T01:47:37.408Z,12.32
2023-01-03T01:50:16.266Z,12.28
2023-01-03T01:52:51.844Z,12.18
2023-01-03T01:55:27.704Z,12.05
2023-01-03T01:57:55.925Z,12.09
2023-01-03T02:00:25.394Z,12.06
2023-01-03T02:02:55.119Z,12.15
2023-01-03T02:05:25.306Z,12.00
2023-01-03T02:07:55.029Z,12.03
2023-01-03T02:10:33.375Z,12.14
2023-01-03T02:13:10.482Z,12.19
2023-01-03T02:16:12.111Z,12.02
2023-01-03T02:18:49.627Z,12.04
2023-01-03T02:21:49.113Z,12.09
2023-01-03T02:24:49.692Z,12.06
2023-01-03T02:28:09.007Z,11.98
2023-01-03T02:30:41.288Z,11.90
2023-01-03T02:33:25.154Z,11.89
2023-01-03T02:36:06.278Z,11.91
2023-01-03T02:38:48.470Z,11.70
2023-01-03T02:41:28.100Z,11.66
2023-01-03T02:44:05.952Z,11.61
2023-01-03T02:46:44.734Z,11.61
2023-01-03T02:49:21.047Z,11.65
2023-01-03T02:51:54.221Z,11.67
2023-01-03T02:54:29.177Z,11.71
2023-01-03T02:57:03.402Z,11.70
2023-01-03T02:59:38.022Z,11.68
2023-01-03T03:02:08.647Z,11.64
2023-01-03T03:04:39.097Z,11.64
2023-01-03T03:07:12.494Z,11.60
2023-01-03T03:09:54.496Z,11.61
2023-01-03T03:12:42.445Z,11.60
2023-01-03T03:15:22.954Z,11.58
2023-01-03T03:17:57.772Z,11.56
2023-01-03T03:20:43.436Z,11.48
2023-01-03T03:23:34.801Z,11.39
2023-01-03T03:26:13.840Z,11.40
2023-01-03T03:28:44.913Z,11.37
2023-01-03T03:31:18.000Z,11.36
2023-01-03T03:33:51.898Z,11.29
2023-01-03T03:36:28.740Z,11.29
2023-01-03T03:38:56.878Z,11.26
2023-01-03T03:41:55.655Z,11.27
2023-01-03T03:44:51.683Z,11.19
2023-01-03T03:47:27.692Z,11.15
2023-01-03T03:50:02.967Z,11.06
2023-01-03T03:52:34.601Z,11.00
2023-01-03T03:55:08.865Z,10.96
2023-01-03T03:57:42.670Z,11.07
2023-01-03T04:00:17.861Z,10.85
2023-01-03T04:02:48.010Z,10.69
2023-01-03T04:05:22.746Z,10.72
2023-01-03T04:07:50.815Z,10.56
2023-01-03T04:10:20.610Z,10.53
2023-01-03T04:12:49.378Z,10.42
2023-01-03T04:15:18.790Z,10.38
2023-01-03T04:17:46.944Z,10.36
2023-01-03T04:20:15.953Z,10.47
2023-01-03T04:22:45.489Z,10.56
2023-01-03T04:25:13.640Z,10.55
2023-01-03T04:27:41.672Z,10.60
2023-01-03T04:30:11.573Z,10.62
2023-01-03T04:32:39.730Z,10.58
2023-01-03T04:35:08.869Z,10.55
2023-01-03T04:37:36.852Z,10.53
2023-01-03T04:40:07.686Z,10.46
2023-01-03T04:42:53.568Z,10.50
2023-01-03T04:45:21.584Z,10.48
2023-01-03T04:47:49.629Z,10.47
2023-01-03T04:50:17.852Z,10.37
2023-01-03T04:52:45.908Z,10.39
2023-01-03T04:55:15.270Z,10.41
2023-01-03T04:57:43.379Z,10.43
2023-01-03T05:00:13.020Z,10.32
2023-01-03T05:02:41.356Z,10.21
2023-01-03T05:05:10.165Z,10.33
2023-01-03T05:07:38.111Z,10.27
2023-01-03T05:10:07.973Z,10.25
2023-01-03T05:12:37.360Z,10.28
2023-01-03T05:15:06.297Z,10.34
2023-01-03T05:17:34.289Z,10.29
2023-01-03T05:20:19.811Z,10.31
2023-01-03T05:23:05.561Z,10.28
2023-01-03T05:25:51.878Z,10.12
2023-01-03T05:28:24.012Z,10.11
2023-01-03T05:30:52.047Z,10.04
2023-01-03T05:33:20.035Z,9.86
2023-01-03T05:35:48.601Z,9.89
2023-01-03T05:38:16.708Z,9.91
2023-01-03T05:40:45.324Z,9.93
2023-01-03T05:43:13.398Z,9.88
2023-01-03T05:45:43.041Z,9.96
2023-01-03T05:48:11.465Z,9.87
2023-01-03T05:50:39.485Z,9.84
2023-01-03T05:53:08.270Z,9.88
2023-01-03T05:55:37.945Z,9.89
2023-01-03T05:58:07.927Z,9.90
2023-01-03T06:00:36.405Z,9.85
2023-01-03T06:03:05.815Z,9.90
2023-01-03T06:05:34.006Z,9.92
2023-01-03T06:08:02.614Z,9.88
2023-01-03T06:10:30.888Z,9.91
2023-01-03T06:12:59.404Z,9.99
2023-01-03T06:15:27.450Z,10.05
2023-01-03T06:18:02.556Z,10.01
2023-01-03T06:20:32.388Z,10.06
2023-01-03T06:23:00.471Z,10.04
2023-01-03T06:25:28.569Z,10.03
2023-01-03T06:27:56.699Z,9.92
2023-01-03T06:30:24.923Z,9.95
2023-01-03T06:32:53.045Z,9.97
2023-01-03T06:35:21.254Z,9.92
2023-01-03T06:37:50.617Z,9.94
2023-01-03T06:40:19.313Z,9.88
2023-01-03T06:42:47.308Z,9.89
2023-01-03T06:45:33.628Z,9.81
2023-01-03T06:48:23.474Z,9.76
2023-01-03T06:51:09.419Z,9.74
2023-01-03T06:53:42.581Z,9.72
2023-01-03T06:56:11.530Z,9.68
2023-01-03T06:58:39.610Z,9.79
2023-01-03T07:01:08.139Z,9.83
2023-01-03T07:03:36.276Z,9.78
2023-01-03T07:06:04.317Z,9.80
2023-01-03T07:08:32.432Z,9.84
2023-01-03T07:11:01.782Z,9.92
2023-01-03T07:13:47.586Z,9.87
2023-01-03T07:16:16.674Z,9.87
2023-01-03T07:18:50.832Z,9.89
2023-01-03T07:21:23.434Z,9.86
2023-01-03T07:23:53.428Z,9.97
2023-01-03T07:26:24.176Z,10.21
2023-01-03T07:28:52.582Z,10.44
2023-01-03T07:31:21.291Z,10.68
2023-01-03T07:33:49.342Z,10.91
2023-01-03T07:36:18.176Z,10.96
2023-01-03T07:38:47.476Z,11.09
2023-01-03T07:41:16.761Z,11.20
2023-01-03T07:43:47.263Z,11.42
2023-01-03T07:46:18.484Z,11.50
2023-01-03T07:48:49.066Z,11.55
2023-01-03T07:51:22.206Z,11.62
2023-01-03T07:53:52.428Z,11.67
2023-01-03T07:56:25.392Z,11.65
2023-01-03T07:58:54.810Z,11.67
2023-01-03T08:01:25.634Z,11.71
2023-01-03T08:03:54.028Z,11.80
2023-01-03T08:06:24.400Z,11.90
2023-01-03T08:09:07.071Z,12.02
2023-01-03T08:11:52.812Z,12.04
2023-01-03T08:14:26.149Z,12.00
2023-01-03T08:16:55.588Z,12.13
2023-01-03T08:19:24.002Z,12.13
2023-01-03T08:21:52.663Z,12.11
2023-01-03T08:24:20.830Z,11.98
2023-01-03T08:26:49.088Z,11.79
2023-01-03T08:29:17.534Z,11.67
2023-01-03T08:31:52.820Z,11.62
2023-01-03T08:34:29.035Z,11.53
2023-01-03T08:37:02.052Z,11.45
2023-01-03T08:39:37.826Z,11.32
2023-01-03T08:42:16.192Z,11.30
2023-01-03T08:44:44.954Z,11.16
2023-01-03T08:47:18.513Z,11.14
2023-01-03T08:49:47.109Z,11.07
2023-01-03T08:52:15.164Z,11.04
2023-01-03T08:54:43.942Z,10.98
2023-01-03T08:57:12.033Z,10.96
2023-01-03T08:59:40.030Z,10.98
2023-01-03T09:02:08.200Z,10.99
2023-01-03T09:04:37.834Z,10.91
2023-01-03T09:07:06.830Z,10.95
2023-01-03T09:09:35.052Z,10.97
2023-01-03T09:12:07.767Z,10.96
2023-01-03T09:14:35.765Z,10.94
2023-01-03T09:17:29.938Z,10.95
2023-01-03T09:19:59.328Z,10.95
2023-01-03T09:22:27.345Z,10.92
2023-01-03T09:24:55.830Z,10.92
2023-01-03T09:27:23.851Z,10.94
2023-01-03T09:29:53.091Z,11.00
2023-01-03T09:32:21.315Z,11.00
2023-01-03T09:34:49.329Z,11.03
2023-01-03T09:37:18.684Z,11.00
2023-01-03T09:39:46.718Z,11.01
2023-01-03T09:42:39.851Z,11.00
2023-01-03T09:45:14.868Z,10.97
2023-01-03T09:47:44.317Z,11.08
2023-01-03T09:50:39.409Z,11.10
2023-01-03T09:53:36.596Z,11.11
2023-01-03T09:56:30.315Z,11.10
2023-01-03T09:59:24.207Z,11.07
2023-01-03T10:02:22.726Z,11.10
2023-01-03T10:05:25.466Z,11.11
2023-01-03T10:08:16.846Z,11.13
2023-01-03T10:10:59.021Z,11.12
2023-01-03T10:13:41.175Z,11.14
2023-01-03T10:16:19.679Z,11.13
2023-01-03T10:19:16.369Z,11.08
2023-01-03T10:21:53.992Z,11.07
2023-01-03T10:24:27.000Z,11.07
2023-01-03T10:27:01.427Z,11.17
2023-01-03T10:29:29.475Z,11.27
2023-01-03T10:32:19.629Z,11.34
2023-01-03T10:35:14.908Z,11.44
2023-01-03T10:37:43.446Z,11.63
2023-01-03T10:40:14.476Z,11.72
2023-01-03T10:42:43.545Z,11.75
2023-01-03T10:45:18.475Z,11.90
2023-01-03T10:47:58.190Z,11.95
2023-01-03T10:50:26.605Z,12.10
2023-01-03T10:55:57.264Z,12.31
2023-01-03T10:58:34.090Z,12.47
2023-01-03T11:01:24.200Z,12.57
2023-01-03T11:04:18.254Z,12.73
2023-01-03T11:07:04.091Z,12.82
2023-01-03T11:09:45.691Z,12.90
2023-01-03T11:12:29.749Z,13.01
2023-01-03T11:15:00.966Z,13.05
2023-01-03T11:17:30.314Z,13.18
2023-01-03T11:19:58.891Z,13.28
2023-01-03T11:22:38.521Z,13.33
2023-01-03T11:25:40.167Z,13.43
2023-01-03T11:28:49.541Z,13.49
2023-01-03T11:31:39.014Z,13.61
2023-01-03T11:34:27.031Z,13.68
2023-01-03T11:37:07.191Z,13.74
2023-01-03T11:39:56.730Z,13.81
2023-01-03T11:42:39.869Z,13.77
2023-01-03T11:45:49.218Z,13.84
2023-01-03T11:48:57.968Z,13.90
2023-01-03T11:51:33.189Z,13.94
2023-01-03T11:54:09.792Z,14.02
2023-01-03T11:56:41.365Z,14.11
2023-01-03T11:59:52.970Z,14.19
2023-01-03T12:02:59.662Z,14.21
2023-01-03T12:05:43.895Z,14.23
2023-01-03T12:08:42.313Z,14.29
2023-01-03T12:11:36.877Z,14.32
2023-01-03T12:14:11.092Z,14.27
2023-01-03T12:16:44.882Z,14.39
2023-01-03T12:19:30.490Z,14.39
2023-01-03T12:22:06.219Z,14.41
2023-01-03T12:24:40.385Z,14.40
2023-01-03T12:27:16.446Z,14.44
2023-01-03T12:29:56.782Z,14.46
2023-01-03T12:32:34.857Z,14.46
2023-01-03T12:35:28.393Z,14.48
2023-01-03T12:37:58.542Z,14.48
2023-01-03T12:40:39.557Z,14.52
2023-01-03T12:43:17.683Z,14.51
2023-01-03T12:45:53.836Z,14.50
2023-01-03T12:48:53.360Z,14.51
2023-01-03T12:51:25.581Z,14.57
2023-01-03T12:54:13.559Z,14.59
2023-01-03T12:57:19.167Z,14.59
2023-01-03T13:00:25.039Z,14.57
2023-01-03T13:02:59.521Z,14.57
2023-01-03T13:05:37.947Z,14.56
2023-01-03T13:08:16.042Z,14.55
2023-01-03T13:10:50.447Z,14.58
2023-01-03T13:13:21.204Z,14.51
2023-01-03T13:15:49.606Z,14.53
2023-01-03T13:18:31.399Z,14.58
2023-01-03T13:21:00.193Z,14.49
2023-01-03T13:23:36.508Z,14.51
2023-01-03T13:26:31.817Z,14.45
2023-01-03T13:29:43.348Z,14.42
2023-01-03T13:32:26.159Z,14.36
2023-01-03T13:35:35.379Z,14.28
2023-01-03T13:38:25.216Z,14.29
2023-01-03T13:41:18.268Z,14.29
2023-01-03T13:43:52.521Z,14.23
2023-01-03T13:46:25.659Z,14.23
2023-01-03T13:48:58.505Z,14.27
2023-01-03T13:51:48.863Z,14.18
2023-01-03T13:54:53.124Z,14.27
2023-01-03T13:57:53.289Z,14.28
2023-01-03T14:00:24.521Z,14.30
2023-01-03T14:03:35.786Z,14.37
2023-01-03T14:06:52.483Z,14.34
2023-01-03T14:10:06.379Z,14.31
2023-01-03T14:13:15.225Z,14.31
2023-01-03T14:15:43.408Z,14.29
2023-01-03T14:18:22.251Z,14.31
2023-01-03T14:20:53.833Z,14.34
2023-01-03T14:23:58.581Z,14.37
2023-01-03T14:26:18.159Z,14.35
2023-01-03T14:28:51.606Z,14.38
2023-01-03T14:31:22.867Z,14.35
2023-01-03T14:33:56.635Z,14.32
2023-01-03T14:36:25.831Z,14.26
2023-01-03T14:38:56.640Z,14.18
2023-01-03T14:41:32.690Z,14.19
2023-01-03T14:44:04.958Z,14.13
2023-01-03T14:46:34.034Z,14.12
2023-01-03T14:49:06.570Z,14.08
2023-01-03T14:51:37.406Z,14.09
2023-01-03T14:54:06.023Z,14.04
2023-01-03T14:56:34.964Z,13.95
2023-01-03T14:59:09.800Z,13.93
2023-01-03T15:01:38.761Z,13.81
2023-01-03T15:04:10.526Z,13.80
2023-01-03T15:06:38.578Z,13.77
2023-01-03T15:09:22.835Z,13.76
2023-01-03T15:11:59.107Z,13.74
2023-01-03T15:14:31.749Z,13.69
2023-01-03T15:17:07.918Z,13.61
2023-01-03T15:19:38.392Z,13.53
2023-01-03T15:22:14.245Z,13.54
2023-01-03T15:24:45.143Z,13.51
2023-01-03T15:27:42.850Z,13.44
2023-01-03T15:30:26.322Z,13.40
2023-01-03T15:33:21.070Z,13.36
2023-01-03T15:35:52.336Z,13.33
2023-01-03T15:38:32.916Z,13.34
2023-01-03T15:41:02.901Z,13.34
2023-01-03T15:43:37.910Z,13.34
2023-01-03T15:46:14.588Z,13.28
2023-01-03T15:48:46.429Z,13.22
2023-01-03T15:51:14.571Z,13.20
2023-01-03T15:53:44.576Z,13.15
2023-01-03T15:56:19.649Z,13.18
2023-01-03T15:58:49.255Z,13.14
2023-01-03T16:01:20.265Z,13.07
2023-01-03T16:03:49.909Z,13.02
2023-01-03T16:06:18.498Z,12.99
2023-01-03T16:08:47.008Z,12.95
2023-01-03T16:11:20.387Z,12.95
2023-01-03T16:13:54.011Z,12.90
2023-01-03T16:16:29.050Z,12.80
2023-01-03T16:18:58.107Z,12.73
2023-01-03T16:21:26.500Z,12.67
2023-01-03T16:23:54.565Z,12.30
2023-01-03T16:26:22.561Z,12.35
2023-01-03T16:28:50.720Z,12.40
2023-01-03T16:31:22.550Z,12.37
2023-01-03T16:33:53.040Z,12.26
2023-01-03T16:36:33.134Z,12.21
2023-01-03T16:39:04.217Z,12.04
2023-01-03T16:41:32.416Z,12.07
2023-01-03T16:44:00.555Z,12.01
2023-01-03T16:46:30.173Z,11.97
2023-01-03T16:49:00.639Z,11.90
2023-01-03T16:51:32.900Z,11.78
2023-01-03T16:54:03.708Z,11.64
2023-01-03T16:56:31.788Z,11.69
2023-01-03T16:58:59.897Z,11.60
2023-01-03T17:01:28.011Z,11.58
2023-01-03T17:03:56.183Z,11.56
2023-01-03T17:06:37.595Z,11.49
2023-01-03T17:09:13.252Z,11.45
2023-01-03T17:11:41.394Z,11.34
2023-01-03T17:14:18.291Z,11.30
2023-01-03T17:16:47.726Z,11.28
2023-01-03T17:20:02.622Z,11.25
2023-01-03T17:22:15.653Z,11.18
2023-01-03T17:24:44.612Z,11.17
2023-01-03T17:27:19.204Z,11.04
2023-01-03T17:29:48.759Z,11.06
2023-01-03T17:32:20.050Z,11.04
2023-01-03T17:34:48.958Z,10.97
2023-01-03T17:37:22.337Z,10.86
2023-01-03T17:39:55.699Z,10.81
2023-01-03T17:42:25.238Z,10.79
2023-01-03T17:45:11.489Z,10.69
2023-01-03T17:47:59.132Z,10.61
2023-01-03T17:50:28.284Z,10.52
2023-01-03T17:52:58.575Z,10.53
2023-01-03T17:55:29.798Z,10.48
2023-01-03T17:58:01.417Z,10.37
2023-01-03T18:00:30.615Z,10.38
2023-01-03T18:03:00.395Z,10.25
2023-01-03T18:05:29.800Z,10.12
2023-01-03T18:08:04.005Z,10.24
2023-01-03T18:10:41.732Z,10.23
2023-01-03T18:13:23.067Z,10.22
2023-01-03T18:15:53.994Z,10.08
2023-01-03T18:18:25.524Z,9.91
2023-01-03T18:20:54.711Z,9.98
2023-01-03T18:23:30.138Z,10.04
2023-01-03T18:26:01.787Z,10.02
2023-01-03T18:28:30.688Z,10.11
2023-01-03T18:30:59.236Z,10.11
2023-01-03T18:33:27.717Z,10.13
2023-01-03T18:35:55.880Z,10.11
2023-01-03T18:38:28.983Z,10.05
2023-01-03T18:41:04.309Z,10.02
2023-01-03T18:43:34.355Z,10.05
2023-01-03T18:46:04.812Z,10.09
2023-01-03T18:48:33.009Z,10.05
2023-01-03T18:51:02.042Z,10.06
2023-01-03T18:53:33.783Z,10.05
2023-01-03T18:56:02.835Z,10.04
2023-01-03T18:58:35.102Z,10.04
2023-01-03T19:01:05.316Z,9.91
2023-01-03T19:03:35.736Z,9.92
2023-01-03T19:06:16.948Z,9.89
2023-01-03T19:08:46.906Z,9.74
2023-01-03T19:11:19.342Z,9.70
2023-01-03T19:13:54.752Z,9.66
2023-01-03T19:16:26.492Z,9.59
2023-01-03T19:18:55.471Z,9.51
2023-01-03T19:21:24.738Z,9.43
2023-01-03T19:24:01.645Z,9.46
2023-01-03T19:26:33.737Z,9.44
2023-01-03T19:29:07.033Z,9.37
2023-01-03T19:31:42.594Z,9.41
2023-01-03T19:34:17.398Z,9.40
2023-01-03T19:36:46.825Z,9.35
2023-01-03T19:39:20.972Z,9.39
2023-01-03T19:42:13.417Z,9.40
2023-01-03T19:44:42.281Z,9.33
2023-01-03T19:47:14.080Z,9.19
2023-01-03T19:49:42.642Z,9.20
2023-01-03T19:52:10.878Z,9.23
2023-01-03T19:54:40.423Z,9.23
2023-01-03T19:57:22.458Z,9.20
2023-01-03T19:59:55.639Z,9.11
2023-01-03T20:02:39.104Z,9.05
2023-01-03T20:05:20.248Z,9.00
2023-01-03T20:07:49.269Z,9.01
2023-01-03T20:10:22.132Z,9.01
2023-01-03T20:12:53.238Z,8.89
2023-01-03T20:15:27.188Z,8.89
2023-01-03T20:17:55.922Z,8.85
2023-01-03T20:20:26.239Z,8.87
2023-01-03T20:23:06.338Z,8.72
2023-01-03T20:25:37.856Z,8.70
2023-01-03T20:28:07.039Z,8.68
2023-01-03T20:30:36.018Z,8.71
2023-01-03T20:33:04.147Z,8.77
2023-01-03T20:38:24.895Z,8.73
2023-01-03T20:40:55.667Z,8.68
2023-01-03T20:43:24.041Z,8.77
2023-01-03T20:45:56.223Z,8.81
2023-01-03T20:48:26.360Z,8.81
2023-01-03T20:50:54.998Z,8.83
2023-01-03T20:53:28.307Z,8.89
2023-01-03T20:55:57.661Z,8.79
2023-01-03T20:58:26.560Z,8.78
2023-01-03T21:01:02.077Z,8.82
2023-01-03T21:03:35.644Z,8.85
2023-01-03T21:06:10.749Z,8.83
2023-01-03T21:08:57.561Z,8.70
2023-01-03T21:11:29.367Z,8.75
2023-01-03T21:14:00.133Z,8.72
2023-01-03T21:16:34.527Z,8.73
2023-01-03T21:19:06.052Z,8.64
2023-01-03T21:21:35.574Z,8.63
2023-01-03T21:24:04.245Z,8.66
2023-01-03T21:26:34.333Z,8.82
2023-01-03T21:29:02.340Z,8.87
2023-01-03T21:31:30.492Z,8.75
2023-01-03T21:33:58.595Z,8.87
2023-01-03T21:36:31.206Z,8.88
2023-01-03T21:39:00.622Z,8.82
2023-01-03T21:41:31.378Z,8.87
2023-01-03T21:44:03.192Z,8.80
2023-01-03T21:46:31.902Z,8.81
2023-01-03T21:49:00.137Z,8.76
2023-01-03T21:51:37.651Z,8.63
2023-01-03T21:54:07.892Z,8.62
2023-01-03T21:56:44.416Z,8.83
2023-01-03T21:59:14.044Z,9.17
2023-01-03T22:01:57.488Z,9.43
2023-01-03T22:04:26.341Z,9.61
2023-01-03T22:07:00.302Z,9.72
2023-01-03T22:09:46.389Z,9.89
2023-01-03T22:12:15.926Z,10.04
2023-01-03T22:14:47.210Z,10.12
2023-01-03T22:17:15.953Z,10.23
2023-01-03T22:19:44.212Z,10.34
2023-01-03T22:22:12.896Z,10.41
2023-01-03T22:24:41.022Z,10.44
2023-01-03T22:27:09.261Z,10.26
2023-01-03T22:29:37.276Z,10.14
2023-01-03T22:32:06.820Z,10.01
2023-01-03T22:34:34.871Z,9.88
2023-01-03T22:37:03.065Z,9.75
2023-01-03T22:39:31.074Z,9.77
2023-01-03T22:41:59.145Z,9.67
2023-01-03T22:44:27.208Z,9.48
2023-01-03T22:46:55.209Z,9.42
2023-01-03T22:49:24.624Z,9.35
2023-01-03T22:51:52.703Z,9.22
2023-01-03T22:54:21.053Z,9.33
2023-01-03T22:56:49.171Z,9.30
2023-01-03T22:59:17.354Z,9.28
2023-01-03T23:02:17.489Z,9.19
2023-01-03T23:04:46.935Z,9.22
2023-01-03T23:07:14.948Z,9.18
2023-01-03T23:09:44.283Z,9.23
2023-01-03T23:12:56.499Z,9.12
2023-01-03T23:15:25.280Z,9.23
2023-01-03T23:17:59.350Z,9.20
2023-01-03T23:20:32.052Z,9.23
2023-01-03T23:23:02.747Z,9.22
2023-01-03T23:25:31.508Z,9.21
2023-01-03T23:27:59.593Z,9.14
2023-01-03T23:30:28.002Z,9.09
2023-01-03T23:32:56.721Z,9.04
2023-01-03T23:35:24.731Z,9.04
2023-01-03T23:37:57.879Z,8.94
2023-01-03T23:40:25.960Z,8.91
2023-01-03T23:42:53.977Z,8.87
2023-01-03T23:45:22.032Z,8.82
2023-01-03T23:47:51.724Z,8.70
2023-01-03T23:50:19.731Z,8.80
2023-01-03T23:52:47.679Z,8.71
2023-01-03T23:55:17.222Z,8.76
2023-01-03T23:57:45.290Z,8.70
